Lanton, Missouri
Current Conditions -  °F | °C
As of 5:53 AM on Friday 19 Dec 2014 (Local Time) from KUNO Reporting Station
Haze Haze  
Wind Chill: 30°   Ceiling: 200
Heat Index: 34°   Visibility: 0.75mi
Dew Point: 33°   Wind: 5mph
Humidity: 96%   Direction: 100°E
Pressure: 30.22"   Gusts: NA
Location:  36.7256°N, 91.9123°W
Report Text: KUNO 191153Z AUTO 10004KT 3/4SM BR VV002 01/01 A3022 RMK AO2 SLP241 T00110006 10022 20011 53001
Loading
Personal Weather Stations






























Interactive Weather Map New forecast layout! Learn more

10-Day Weather Forecast

Advertisements
Track Severe Weather on mobile